Time,TemperatureF,DewpointF,PressureIn,WindDirection,WindDirectionDegrees,WindSpeedMPH,WindSpeedGustMPH,Humidity,HourlyPrecipIn,Conditions,Clouds,dailyrainin,SoftwareType,DateUTC
2013-04-06 00:02:00,60.0,47.0,30.00,SE,142,3.0,6.0,63,0.00,,,0.00,,2013-04-06 05:02:00,
2013-04-06 00:13:00,60.0,47.0,30.00,SE,142,3.0,6.0,63,0.00,,,0.00,,2013-04-06 05:13:00,
2013-04-06 00:22:00,59.0,47.0,29.99,SSE,153,4.0,10.0,65,0.00,,,0.00,,2013-04-06 05:22:00,
2013-04-06 00:32:00,59.0,48.0,29.99,South,181,6.0,17.0,66,0.00,,,0.00,,2013-04-06 05:32:00,
2013-04-06 00:42:00,59.0,48.0,29.99,South,181,6.0,17.0,66,0.00,,,0.00,,2013-04-06 05:42:00,
2013-04-06 00:52:00,59.0,49.0,29.99,South,176,2.0,15.0,69,0.00,,,0.00,,2013-04-06 05:52:00,
2013-04-06 01:02:00,58.0,48.0,29.99,SSW,193,6.0,17.0,70,0.00,,,0.00,,2013-04-06 06:02:00,
2013-04-06 01:12:00,58.0,48.0,29.99,SSW,193,6.0,17.0,70,0.00,,,0.00,,2013-04-06 06:12:00,
2013-04-06 01:22:00,58.0,49.0,30.00,SSW,195,3.0,12.0,71,0.00,,,0.00,,2013-04-06 06:22:00,
2013-04-06 01:32:00,58.0,48.0,29.99,SSW,192,0.0,8.0,70,0.00,,,0.00,,2013-04-06 06:32:00,
2013-04-06 01:42:00,58.0,48.0,29.99,SSW,192,0.0,8.0,70,0.00,,,0.00,,2013-04-06 06:42:00,
2013-04-06 01:53:00,58.0,49.0,29.99,South,184,2.0,12.0,71,0.00,,,0.00,,2013-04-06 06:53:00,
2013-04-06 02:03:00,57.0,48.0,29.99,South,175,3.0,12.0,72,0.00,,,0.00,,2013-04-06 07:03:00,
2013-04-06 02:12:00,57.0,48.0,29.99,South,175,3.0,12.0,72,0.00,,,0.00,,2013-04-06 07:12:00,
2013-04-06 02:22:00,57.0,48.0,29.99,South,176,0.0,0.0,73,0.00,,,0.00,,2013-04-06 07:22:00,
2013-04-06 02:33:00,57.0,48.0,29.98,South,171,3.0,10.0,73,0.00,,,0.00,,2013-04-06 07:33:00,
2013-04-06 02:43:00,57.0,48.0,29.98,South,171,3.0,10.0,73,0.00,,,0.00,,2013-04-06 07:43:00,
2013-04-06 02:53:00,56.0,47.0,29.98,SSE,168,2.0,10.0,72,0.00,,,0.00,,2013-04-06 07:53:00,
2013-04-06 03:02:00,56.0,47.0,29.97,SSE,165,0.0,10.0,72,0.00,,,0.00,,2013-04-06 08:02:00,
2013-04-06 03:12:00,56.0,47.0,29.97,SSE,165,0.0,10.0,72,0.00,,,0.00,,2013-04-06 08:12:00,
2013-04-06 03:22:00,56.0,47.0,29.96,SSE,165,0.0,0.0,72,0.00,,,0.00,,2013-04-06 08:22:00,
2013-04-06 03:32:00,56.0,47.0,29.96,SSE,164,0.0,0.0,73,0.00,,,0.00,,2013-04-06 08:32:00,
2013-04-06 03:42:00,56.0,47.0,29.96,SSE,164,0.0,0.0,73,0.00,,,0.00,,2013-04-06 08:42:00,
2013-04-06 03:52:00,55.0,47.0,29.96,SSE,164,0.0,0.0,74,0.00,,,0.00,,2013-04-06 08:52:00,
2013-04-06 04:02:00,55.0,47.0,29.96,SSE,165,2.0,8.0,74,0.00,,,0.00,,2013-04-06 09:02:00,
2013-04-06 04:12:00,55.0,47.0,29.96,SSE,165,2.0,8.0,74,0.00,,,0.00,,2013-04-06 09:12:00,
2013-04-06 04:22:00,54.0,46.0,29.95,SSE,165,3.0,9.0,74,0.00,,,0.00,,2013-04-06 09:22:00,
2013-04-06 04:32:00,54.0,46.0,29.93,SSE,164,3.0,8.0,74,0.00,,,0.00,,2013-04-06 09:32:00,
2013-04-06 04:43:00,54.0,46.0,29.93,SSE,164,3.0,8.0,74,0.00,,,0.00,,2013-04-06 09:43:00,
2013-04-06 04:53:00,54.0,46.0,29.93,SSE,163,5.0,13.0,74,0.00,,,0.00,,2013-04-06 09:53:00,
2013-04-06 05:03:00,54.0,46.0,29.93,SSE,160,4.0,9.0,75,0.00,,,0.00,,2013-04-06 10:03:00,
2013-04-06 05:13:00,54.0,46.0,29.93,SSE,160,4.0,9.0,75,0.00,,,0.00,,2013-04-06 10:13:00,
2013-04-06 05:22:00,54.0,46.0,29.93,SSE,159,2.0,8.0,75,0.00,,,0.00,,2013-04-06 10:22:00,
2013-04-06 05:33:00,54.0,46.0,29.93,SSE,159,2.0,8.0,75,0.00,,,0.00,,2013-04-06 10:33:00,
2013-04-06 05:42:00,54.0,46.0,29.93,SSE,159,2.0,8.0,75,0.00,,,0.00,,2013-04-06 10:42:00,
2013-04-06 05:53:00,53.0,46.0,29.93,SSE,159,1.0,8.0,76,0.00,,,0.00,,2013-04-06 10:53:00,
2013-04-06 06:02:00,53.0,46.0,29.94,SSE,159,0.0,10.0,78,0.00,,,0.00,,2013-04-06 11:02:00,
2013-04-06 06:12:00,53.0,46.0,29.94,SSE,159,0.0,10.0,78,0.00,,,0.00,,2013-04-06 11:12:00,
2013-04-06 06:22:00,53.0,47.0,29.93,SSE,159,4.0,7.0,80,0.00,,,0.00,,2013-04-06 11:22:00,
2013-04-06 06:32:00,53.0,47.0,29.93,SSE,159,4.0,10.0,81,0.00,,,0.00,,2013-04-06 11:32:00,
2013-04-06 06:42:00,53.0,47.0,29.93,SSE,159,4.0,10.0,81,0.00,,,0.00,,2013-04-06 11:42:00,
2013-04-06 06:53:00,52.0,47.0,29.93,SSE,159,1.0,7.0,82,0.00,,,0.00,,2013-04-06 11:53:00,
2013-04-06 07:02:00,52.0,47.0,29.93,SSE,159,3.0,8.0,84,0.00,,,0.00,,2013-04-06 12:02:00,
2013-04-06 07:12:00,52.0,47.0,29.93,SSE,159,3.0,8.0,84,0.00,,,0.00,,2013-04-06 12:12:00,
2013-04-06 07:22:00,52.0,48.0,29.94,SSE,159,2.0,7.0,86,0.00,,,0.00,,2013-04-06 12:22:00,
2013-04-06 07:32:00,52.0,48.0,29.94,SSE,159,0.0,7.0,87,0.00,,,0.00,,2013-04-06 12:32:00,
2013-04-06 07:43:00,52.0,48.0,29.94,SSE,159,0.0,7.0,87,0.00,,,0.00,,2013-04-06 12:43:00,
2013-04-06 07:52:00,53.0,49.0,29.94,SSE,159,1.0,7.0,87,0.00,,,0.00,,2013-04-06 12:52:00,
2013-04-06 08:02:00,54.0,50.0,29.95,SSE,159,0.0,7.0,87,0.00,,,0.00,,2013-04-06 13:02:00,
2013-04-06 08:12:00,54.0,50.0,29.95,SSE,159,0.0,7.0,87,0.00,,,0.00,,2013-04-06 13:12:00,
2013-04-06 08:23:00,55.0,51.0,29.96,SSE,161,2.0,11.0,86,0.00,,,0.00,,2013-04-06 13:23:00,
2013-04-06 08:32:00,56.0,52.0,29.95,South,180,9.0,13.0,85,0.00,,,0.00,,2013-04-06 13:32:00,
2013-04-06 08:42:00,56.0,52.0,29.95,South,180,9.0,13.0,85,0.00,,,0.00,,2013-04-06 13:42:00,
2013-04-06 08:53:00,56.0,51.0,29.95,South,187,8.0,17.0,83,0.00,,,0.00,,2013-04-06 13:53:00,
2013-04-06 09:03:00,57.0,52.0,29.96,SSW,193,9.0,16.0,82,0.00,,,0.00,,2013-04-06 14:03:00,
2013-04-06 09:12:00,57.0,52.0,29.96,SSW,193,9.0,16.0,82,0.00,,,0.00,,2013-04-06 14:12:00,
2013-04-06 09:22:00,58.0,52.0,29.96,South,191,8.0,16.0,81,0.00,,,0.00,,2013-04-06 14:22:00,
2013-04-06 09:32:00,59.0,53.0,29.96,SSW,200,9.0,21.0,80,0.00,,,0.00,,2013-04-06 14:32:00,
2013-04-06 09:42:00,59.0,53.0,29.96,SSW,200,9.0,21.0,80,0.00,,,0.00,,2013-04-06 14:42:00,
2013-04-06 09:53:00,59.0,52.0,29.96,SSW,202,10.0,18.0,78,0.00,,,0.00,,2013-04-06 14:53:00,
2013-04-06 10:02:00,60.0,52.0,29.95,SW,221,15.0,24.0,76,0.00,,,0.00,,2013-04-06 15:02:00,
2013-04-06 10:12:00,60.0,52.0,29.95,SW,221,15.0,24.0,76,0.00,,,0.00,,2013-04-06 15:12:00,
2013-04-06 10:22:00,60.0,52.0,29.94,South,182,9.0,22.0,76,0.00,,,0.00,,2013-04-06 15:22:00,
2013-04-06 10:33:00,62.0,53.0,29.94,SW,220,12.0,21.0,73,0.00,,,0.00,,2013-04-06 15:33:00,
2013-04-06 10:43:00,62.0,53.0,29.94,SW,220,12.0,21.0,73,0.00,,,0.00,,2013-04-06 15:43:00,
2013-04-06 10:53:00,64.0,54.0,29.94,SSW,209,8.0,17.0,70,0.00,,,0.00,,2013-04-06 15:53:00,
2013-04-06 11:05:00,65.0,54.0,29.94,South,184,10.0,23.0,68,0.00,,,0.00,,2013-04-06 16:05:00,
2013-04-06 11:17:00,65.0,54.0,29.94,South,184,10.0,23.0,68,0.00,,,0.00,,2013-04-06 16:17:00,
2013-04-06 11:23:00,65.0,53.0,29.94,SSW,200,10.0,18.0,66,0.00,,,0.00,,2013-04-06 16:23:00,
2013-04-06 11:32:00,66.0,54.0,29.94,SSW,206,11.0,19.0,65,0.00,,,0.00,,2013-04-06 16:32:00,
2013-04-06 11:42:00,66.0,54.0,29.94,SSW,206,11.0,19.0,65,0.00,,,0.00,,2013-04-06 16:42:00,
2013-04-06 11:53:00,67.0,54.0,29.94,SSW,211,12.0,21.0,63,0.00,,,0.00,,2013-04-06 16:53:00,
2013-04-06 12:02:00,68.0,54.0,29.93,SSW,212,12.0,19.0,61,0.00,,,0.00,,2013-04-06 17:02:00,
2013-04-06 12:12:00,68.0,54.0,29.93,SSW,212,12.0,19.0,61,0.00,,,0.00,,2013-04-06 17:12:00,
2013-04-06 12:22:00,68.0,54.0,29.92,SSW,192,13.0,22.0,60,0.00,,,0.00,,2013-04-06 17:22:00,
2013-04-06 12:32:00,71.0,56.0,29.92,SSW,201,5.0,18.0,59,0.00,,,0.00,,2013-04-06 17:32:00,
2013-04-06 12:42:00,71.0,56.0,29.92,SSW,201,5.0,18.0,59,0.00,,,0.00,,2013-04-06 17:42:00,
2013-04-06 12:52:00,72.0,55.0,29.91,South,173,4.0,17.0,56,0.00,,,0.00,,2013-04-06 17:52:00,
2013-04-06 13:02:00,72.0,55.0,29.91,SSW,203,7.0,19.0,55,0.00,,,0.00,,2013-04-06 18:02:00,
2013-04-06 13:12:00,72.0,55.0,29.91,SSW,203,7.0,19.0,55,0.00,,,0.00,,2013-04-06 18:12:00,
2013-04-06 13:23:00,73.0,56.0,29.91,SW,218,10.0,20.0,56,0.00,,,0.00,,2013-04-06 18:23:00,
2013-04-06 13:32:00,74.0,55.0,29.90,South,176,7.0,20.0,52,0.00,,,0.00,,2013-04-06 18:32:00,
2013-04-06 13:42:00,74.0,55.0,29.90,South,176,7.0,20.0,52,0.00,,,0.00,,2013-04-06 18:42:00,
2013-04-06 13:52:00,74.0,56.0,29.89,SSW,198,11.0,19.0,54,0.00,,,0.00,,2013-04-06 18:52:00,
2013-04-06 14:02:00,75.0,57.0,29.88,SSW,211,13.0,21.0,54,0.00,,,0.00,,2013-04-06 19:02:00,
2013-04-06 14:12:00,75.0,57.0,29.88,SSW,211,13.0,21.0,54,0.00,,,0.00,,2013-04-06 19:12:00,
2013-04-06 14:22:00,75.0,57.0,29.87,SSW,209,12.0,23.0,53,0.00,,,0.00,,2013-04-06 19:22:00,
2013-04-06 14:32:00,76.0,58.0,29.86,SW,219,9.0,21.0,53,0.00,,,0.00,,2013-04-06 19:32:00,
2013-04-06 14:42:00,76.0,58.0,29.86,SW,219,9.0,21.0,53,0.00,,,0.00,,2013-04-06 19:42:00,
2013-04-06 14:54:00,77.0,58.0,29.84,SSW,207,10.0,19.0,52,0.00,,,0.00,,2013-04-06 19:54:00,
2013-04-06 15:02:00,78.0,58.0,29.84,SW,227,7.0,17.0,50,0.00,,,0.00,,2013-04-06 20:02:00,
2013-04-06 15:12:00,78.0,58.0,29.84,SW,227,7.0,17.0,50,0.00,,,0.00,,2013-04-06 20:12:00,
2013-04-06 15:22:00,77.0,57.0,29.83,South,182,10.0,21.0,50,0.00,,,0.00,,2013-04-06 20:22:00,
2013-04-06 15:32:00,78.0,58.0,29.82,SSW,199,9.0,21.0,50,0.00,,,0.00,,2013-04-06 20:32:00,
2013-04-06 15:42:00,78.0,58.0,29.82,SSW,199,9.0,21.0,50,0.00,,,0.00,,2013-04-06 20:42:00,
2013-04-06 15:52:00,80.0,59.0,29.82,WSW,251,4.0,15.0,48,0.00,,,0.00,,2013-04-06 20:52:00,
2013-04-06 16:02:00,78.0,57.0,29.81,SSW,205,9.0,17.0,49,0.00,,,0.00,,2013-04-06 21:02:00,
2013-04-06 16:13:00,79.0,58.0,29.80,South,191,9.0,20.0,49,0.00,,,0.00,,2013-04-06 21:13:00,
2013-04-06 16:22:00,79.0,58.0,29.80,South,191,9.0,20.0,49,0.00,,,0.00,,2013-04-06 21:22:00,
2013-04-06 16:33:00,79.0,59.0,29.80,SSW,192,9.0,18.0,50,0.00,,,0.00,,2013-04-06 21:33:00,
2013-04-06 16:43:00,79.0,59.0,29.80,SSW,192,9.0,18.0,50,0.00,,,0.00,,2013-04-06 21:43:00,
2013-04-06 16:53:00,80.0,59.0,29.79,SW,233,9.0,15.0,48,0.00,,,0.00,,2013-04-06 21:53:00,
2013-04-06 17:03:00,80.0,58.0,29.79,SW,229,10.0,17.0,47,0.00,,,0.00,,2013-04-06 22:03:00,
2013-04-06 17:13:00,80.0,58.0,29.79,SW,229,10.0,17.0,47,0.00,,,0.00,,2013-04-06 22:13:00,
2013-04-06 17:23:00,80.0,59.0,29.78,SSW,199,8.0,19.0,49,0.00,,,0.00,,2013-04-06 22:23:00,
2013-04-06 17:34:00,80.0,59.0,29.78,SSW,202,6.0,17.0,48,0.00,,,0.00,,2013-04-06 22:34:00,
2013-04-06 17:43:00,80.0,59.0,29.78,SSW,202,6.0,17.0,48,0.00,,,0.00,,2013-04-06 22:43:00,
2013-04-06 17:53:00,79.0,58.0,29.78,SSW,211,10.0,17.0,48,0.00,,,0.00,,2013-04-06 22:53:00,
2013-04-06 18:03:00,80.0,59.0,29.78,South,188,10.0,19.0,48,0.00,,,0.00,,2013-04-06 23:03:00,
2013-04-06 18:13:00,80.0,59.0,29.78,South,188,10.0,19.0,48,0.00,,,0.00,,2013-04-06 23:13:00,
2013-04-06 18:23:00,79.0,58.0,29.78,SW,223,10.0,20.0,48,0.00,,,0.00,,2013-04-06 23:23:00,
2013-04-06 18:34:00,79.0,58.0,29.78,SSW,209,9.0,16.0,48,0.00,,,0.00,,2013-04-06 23:34:00,
2013-04-06 18:42:00,79.0,58.0,29.78,SSW,209,9.0,16.0,48,0.00,,,0.00,,2013-04-06 23:42:00,
2013-04-06 18:53:00,79.0,58.0,29.77,SW,217,11.0,17.0,48,0.00,,,0.00,,2013-04-06 23:53:00,
2013-04-06 19:02:00,78.0,57.0,29.76,SSW,207,6.0,17.0,49,0.00,,,0.00,,2013-04-07 00:02:00,
2013-04-06 19:12:00,78.0,57.0,29.76,SSW,207,6.0,17.0,49,0.00,,,0.00,,2013-04-07 00:12:00,
2013-04-06 19:22:00,78.0,57.0,29.76,SSW,195,10.0,19.0,48,0.00,,,0.00,,2013-04-07 00:22:00,
2013-04-06 19:32:00,77.0,56.0,29.76,SSW,205,7.0,15.0,49,0.00,,,0.00,,2013-04-07 00:32:00,
2013-04-06 19:42:00,77.0,56.0,29.76,SSW,205,7.0,15.0,49,0.00,,,0.00,,2013-04-07 00:42:00,
2013-04-06 19:53:00,76.0,57.0,29.76,South,189,1.0,9.0,51,0.00,,,0.00,,2013-04-07 00:53:00,
2013-04-06 20:02:00,76.0,57.0,29.76,South,171,0.0,10.0,52,0.00,,,0.00,,2013-04-07 01:02:00,
2013-04-06 20:12:00,76.0,57.0,29.76,South,171,0.0,10.0,52,0.00,,,0.00,,2013-04-07 01:12:00,
2013-04-06 20:23:00,76.0,57.0,29.78,SSE,161,3.0,8.0,52,0.00,,,0.00,,2013-04-07 01:23:00,
2013-04-06 20:32:00,75.0,57.0,29.78,SSE,159,1.0,11.0,54,0.00,,,0.00,,2013-04-07 01:32:00,
2013-04-06 20:42:00,75.0,57.0,29.78,SSE,159,1.0,11.0,54,0.00,,,0.00,,2013-04-07 01:42:00,
2013-04-06 20:53:00,74.0,57.0,29.78,SSE,159,3.0,13.0,56,0.00,,,0.00,,2013-04-07 01:53:00,
2013-04-06 21:03:00,73.0,57.0,29.79,SE,145,5.0,13.0,58,0.00,,,0.00,,2013-04-07 02:03:00,
2013-04-06 21:12:00,73.0,57.0,29.79,SE,145,5.0,13.0,58,0.00,,,0.00,,2013-04-07 02:12:00,
2013-04-06 21:23:00,72.0,57.0,29.79,SE,140,3.0,14.0,60,0.00,,,0.00,,2013-04-07 02:23:00,
2013-04-06 21:32:00,71.0,57.0,29.80,SSE,160,2.0,15.0,61,0.00,,,0.00,,2013-04-07 02:32:00,
2013-04-06 21:42:00,71.0,57.0,29.80,SSE,160,2.0,15.0,61,0.00,,,0.00,,2013-04-07 02:42:00,
2013-04-06 21:52:00,71.0,58.0,29.80,SE,144,2.0,9.0,63,0.00,,,0.00,,2013-04-07 02:52:00,
2013-04-06 22:02:00,70.0,58.0,29.81,SE,134,5.0,13.0,65,0.00,,,0.00,,2013-04-07 03:02:00,
2013-04-06 22:12:00,70.0,58.0,29.81,SE,134,5.0,13.0,65,0.00,,,0.00,,2013-04-07 03:12:00,
2013-04-06 22:22:00,69.0,57.0,29.81,SSE,150,4.0,17.0,66,0.00,,,0.00,,2013-04-07 03:22:00,
2013-04-06 22:43:00,68.0,57.0,29.81,SSE,160,5.0,14.0,68,0.00,,,0.00,,2013-04-07 03:43:00,
2013-04-06 22:54:00,68.0,57.0,29.81,South,180,2.0,18.0,67,0.00,,,0.00,,2013-04-07 03:54:00,
2013-04-06 23:03:00,67.0,56.0,29.81,SSE,155,7.0,18.0,68,0.00,,,0.00,,2013-04-07 04:03:00,
2013-04-06 23:14:00,67.0,56.0,29.81,SSE,155,7.0,18.0,68,0.00,,,0.00,,2013-04-07 04:14:00,
2013-04-06 23:23:00,67.0,56.0,29.81,South,169,9.0,18.0,69,0.00,,,0.00,,2013-04-07 04:23:00,
2013-04-06 23:32:00,66.0,56.0,29.80,SSE,154,6.0,16.0,69,0.00,,,0.00,,2013-04-07 04:32:00,
2013-04-06 23:43:00,66.0,56.0,29.80,SSE,154,6.0,16.0,69,0.00,,,0.00,,2013-04-07 04:43:00,
2013-04-06 23:53:00,66.0,56.0,29.81,SSE,165,5.0,17.0,71,0.00,,,0.00,,2013-04-07 04:53:00,